createdAt,value
2018-11-28T00:00:22.550Z,88.24
2018-11-28T00:01:21.657Z,88.55
2018-11-28T00:02:21.688Z,88.24
2018-11-28T00:03:21.781Z,88.55
2018-11-28T00:04:21.621Z,87.61
2018-11-28T00:05:23.371Z,87.78
2018-11-28T00:06:21.762Z,87.26
2018-11-28T00:07:21.612Z,87.51
2018-11-28T00:08:21.662Z,86.94
2018-11-28T00:09:21.669Z,87.26
2018-11-28T00:10:21.670Z,87.15
2018-11-28T00:11:21.698Z,87.26
2018-11-28T00:12:21.571Z,87.47
2018-11-28T00:13:21.626Z,87.51
2018-11-28T00:14:21.636Z,86.99
2018-11-28T00:15:21.516Z,86.99
2018-11-28T00:16:21.641Z,87.51
2018-11-28T00:17:21.470Z,87.51
2018-11-28T00:18:21.463Z,87.40
2018-11-28T00:19:21.459Z,86.77
2018-11-28T00:20:21.535Z,88.03
2018-11-28T00:21:21.447Z,87.19
2018-11-28T00:22:21.723Z,87.40
2018-11-28T00:23:21.455Z,87.05
2018-11-28T00:24:21.409Z,87.26
2018-11-28T00:25:21.412Z,86.88
2018-11-28T00:26:21.546Z,87.30
2018-11-28T00:27:21.404Z,87.09
2018-11-28T00:28:21.633Z,87.30
2018-11-28T00:29:21.365Z,87.19
2018-11-28T00:30:21.356Z,87.30
2018-11-28T00:31:21.337Z,87.93
2018-11-28T00:32:22.470Z,87.71
2018-11-28T00:33:21.413Z,87.82
2018-11-28T00:34:21.367Z,87.61
2018-11-28T00:35:21.440Z,87.34
2018-11-28T00:36:21.291Z,87.71
2018-11-28T00:37:21.530Z,87.45
2018-11-28T00:38:21.267Z,87.93
2018-11-28T00:39:21.309Z,88.39
2018-11-28T00:40:21.295Z,88.49
2018-11-28T00:41:21.204Z,87.86
2018-11-28T00:42:21.718Z,88.55
2018-11-28T00:43:21.206Z,88.80
2018-11-28T00:44:21.241Z,88.59
2018-11-28T00:45:23.001Z,88.90
2018-11-28T00:46:21.165Z,88.74
2018-11-28T00:47:21.260Z,89.53
2018-11-28T00:48:21.150Z,89.64
2018-11-28T00:49:21.220Z,89.68
2018-11-28T00:50:22.751Z,89.68
2018-11-28T00:51:21.098Z,89.58
2018-11-28T00:52:21.124Z,89.36
2018-11-28T00:53:21.105Z,89.89
2018-11-28T00:54:21.083Z,89.36
2018-11-28T00:55:21.092Z,89.36
2018-11-28T00:56:21.065Z,89.99
2018-11-28T00:57:21.144Z,89.78
2018-11-28T00:58:21.155Z,90.20
2018-11-28T00:59:21.143Z,90.09
2018-11-28T01:00:21.048Z,90.09
2018-11-28T01:01:21.404Z,90.09
2018-11-28T01:02:20.993Z,90.31
2018-11-28T01:03:20.979Z,90.45
2018-11-28T01:04:21.096Z,90.97
2018-11-28T01:05:20.990Z,91.08
2018-11-28T01:06:21.111Z,91.50
2018-11-28T01:07:20.949Z,91.81
2018-11-28T01:08:20.965Z,91.60
2018-11-28T01:09:20.936Z,91.75
2018-11-28T01:10:20.967Z,91.58
2018-11-28T01:11:20.945Z,92.00
2018-11-28T01:12:21.013Z,92.42
2018-11-28T01:13:20.893Z,92.67
2018-11-28T01:14:22.432Z,92.57
2018-11-28T01:15:20.848Z,93.44
2018-11-28T01:16:20.869Z,93.97
2018-11-28T01:17:20.933Z,94.76
2018-11-28T01:18:20.819Z,94.49
2018-11-28T01:19:20.871Z,94.81
2018-11-28T01:20:20.870Z,94.60
2018-11-28T01:21:20.779Z,95.01
2018-11-28T01:22:20.781Z,95.27
2018-11-28T01:23:20.758Z,94.95
2018-11-28T01:24:20.788Z,94.58
2018-11-28T01:25:20.828Z,95.31
2018-11-28T01:26:20.757Z,95.52
2018-11-28T01:27:20.836Z,96.36
2018-11-28T01:28:20.804Z,96.19
2018-11-28T01:29:20.731Z,96.89
2018-11-28T01:30:20.708Z,96.67
2018-11-28T01:31:20.683Z,96.30
2018-11-28T01:32:20.688Z,97.30
2018-11-28T01:33:20.701Z,97.35
2018-11-28T01:34:20.755Z,96.99
2018-11-28T01:35:20.648Z,97.14
2018-11-28T01:36:20.734Z,97.77
2018-11-28T01:37:20.687Z,97.77
2018-11-28T01:38:20.743Z,97.60
2018-11-28T01:39:20.662Z,97.08
2018-11-28T01:40:20.649Z,97.64
2018-11-28T01:41:22.625Z,97.50
2018-11-28T01:42:20.553Z,97.54
2018-11-28T01:43:20.593Z,97.96
2018-11-28T01:44:21.002Z,97.86
2018-11-28T01:45:20.539Z,98.69
2018-11-28T01:46:20.517Z,99.27
2018-11-28T01:47:20.549Z,99.99
2018-11-28T01:48:20.523Z,99.99
2018-11-28T01:49:20.520Z,99.99
2018-11-28T01:50:20.615Z,99.99
2018-11-28T01:51:20.462Z,99.99
2018-11-28T01:52:20.497Z,99.99
2018-11-28T01:53:20.511Z,99.99
2018-11-28T01:54:20.528Z,99.51
2018-11-28T01:55:20.531Z,98.77
2018-11-28T01:56:20.429Z,98.77
2018-11-28T01:57:20.435Z,98.67
2018-11-28T01:58:20.380Z,98.10
2018-11-28T01:59:22.024Z,97.95
2018-11-28T02:00:20.536Z,97.63
2018-11-28T02:01:20.357Z,96.86
2018-11-28T02:02:20.382Z,96.33
2018-11-28T02:03:20.438Z,95.50
2018-11-28T02:04:20.525Z,94.93
2018-11-28T02:05:20.311Z,95.56
2018-11-28T02:06:20.379Z,94.51
2018-11-28T02:07:20.329Z,94.51
2018-11-28T02:08:20.513Z,94.68
2018-11-28T02:09:20.310Z,94.72
2018-11-28T02:10:20.399Z,94.72
2018-11-28T02:11:20.241Z,94.26
2018-11-28T02:12:20.275Z,94.05
2018-11-28T02:13:20.229Z,94.89
2018-11-28T02:14:20.332Z,94.05
2018-11-28T02:15:20.239Z,94.15
2018-11-28T02:16:20.314Z,94.05
2018-11-28T02:17:20.248Z,93.95
2018-11-28T02:18:20.177Z,93.42
2018-11-28T02:19:20.154Z,93.32
2018-11-28T02:20:20.369Z,93.32
2018-11-28T02:21:20.158Z,93.52
2018-11-28T02:22:20.138Z,94.46
2018-11-28T02:23:20.398Z,93.52
2018-11-28T02:24:20.185Z,93.63
2018-11-28T02:25:20.279Z,93.95
2018-11-28T02:26:20.106Z,94.15
2018-11-28T02:27:20.143Z,93.74
2018-11-28T02:28:20.122Z,93.74
2018-11-28T02:29:20.129Z,93.95
2018-11-28T02:30:20.074Z,94.26
2018-11-28T02:31:20.034Z,93.99
2018-11-28T02:32:20.037Z,94.93
2018-11-28T02:33:20.008Z,94.72
2018-11-28T02:34:20.104Z,94.09
2018-11-28T02:35:20.016Z,94.40
2018-11-28T02:36:19.994Z,94.62
2018-11-28T02:37:19.993Z,95.18
2018-11-28T02:38:19.981Z,95.18
2018-11-28T02:39:19.995Z,95.12
2018-11-28T02:40:19.973Z,95.12
2018-11-28T02:41:20.177Z,96.06
2018-11-28T02:42:19.927Z,96.69
2018-11-28T02:43:20.003Z,97.11
2018-11-28T02:44:19.925Z,96.75
2018-11-28T02:45:19.954Z,96.86
2018-11-28T02:46:19.956Z,97.17
2018-11-28T02:47:19.861Z,97.17
2018-11-28T02:48:19.845Z,96.75
2018-11-28T02:49:19.967Z,96.80
2018-11-28T02:50:19.976Z,97.28
2018-11-28T02:51:19.888Z,96.96
2018-11-28T02:52:20.785Z,96.12
2018-11-28T02:53:19.854Z,96.80
2018-11-28T02:54:19.889Z,96.80
2018-11-28T02:55:19.867Z,97.00
2018-11-28T02:56:19.861Z,97.32
2018-11-28T02:57:19.845Z,97.53
2018-11-28T02:58:19.785Z,97.06
2018-11-28T02:59:19.732Z,96.90
2018-11-28T03:00:19.736Z,96.90
2018-11-28T03:01:19.919Z,97.32
2018-11-28T03:02:19.997Z,97.00
2018-11-28T03:03:19.682Z,96.94
2018-11-28T03:04:20.757Z,97.78
2018-11-28T03:05:19.676Z,97.85
2018-11-28T03:06:19.715Z,98.05
2018-11-28T03:07:20.018Z,98.26
2018-11-28T03:08:19.637Z,98.41
2018-11-28T03:09:19.873Z,98.10
2018-11-28T03:10:19.608Z,98.14
2018-11-28T03:11:19.601Z,98.31
2018-11-28T03:12:19.695Z,98.46
2018-11-28T03:13:19.610Z,98.21
2018-11-28T03:14:20.419Z,98.35
2018-11-28T03:15:19.619Z,98.25
2018-11-28T03:16:19.546Z,98.67
2018-11-28T03:17:19.530Z,98.35
2018-11-28T03:18:19.723Z,98.77
2018-11-28T03:19:19.498Z,98.82
2018-11-28T03:20:19.721Z,99.34
2018-11-28T03:21:19.637Z,99.44
2018-11-28T03:22:19.469Z,99.87
2018-11-28T03:23:19.543Z,99.99
2018-11-28T03:24:19.521Z,99.99
2018-11-28T03:25:19.776Z,99.99
2018-11-28T03:26:20.846Z,99.99
2018-11-28T03:27:19.423Z,99.99
2018-11-28T03:28:19.479Z,99.99
2018-11-28T03:29:19.590Z,99.99
2018-11-28T03:30:19.490Z,99.99
2018-11-28T03:31:19.391Z,99.99
2018-11-28T03:32:19.460Z,99.99
2018-11-28T03:33:19.535Z,99.99
2018-11-28T03:34:19.532Z,99.99
2018-11-28T03:35:19.337Z,99.99
2018-11-28T03:36:19.467Z,99.99
2018-11-28T03:37:19.408Z,99.99
2018-11-28T03:38:19.617Z,99.99
2018-11-28T03:39:19.680Z,99.99
2018-11-28T03:40:19.448Z,99.99
2018-11-28T03:41:19.279Z,99.99
2018-11-28T03:42:19.266Z,99.99
2018-11-28T03:43:19.378Z,99.99
2018-11-28T03:44:19.236Z,99.99
2018-11-28T03:45:19.576Z,99.99
2018-11-28T03:46:19.889Z,99.99
2018-11-28T03:47:19.218Z,99.84
2018-11-28T03:48:19.224Z,99.68
2018-11-28T03:49:19.255Z,99.05
2018-11-28T03:50:19.178Z,99.58
2018-11-28T03:51:19.347Z,98.85
2018-11-28T03:52:19.165Z,98.95
2018-11-28T03:53:19.220Z,98.80
2018-11-28T03:54:19.185Z,98.38
2018-11-28T03:55:19.234Z,97.86
2018-11-28T03:56:19.157Z,97.86
2018-11-28T03:57:19.103Z,97.19
2018-11-28T03:58:19.181Z,96.88
2018-11-28T03:59:19.085Z,96.35
2018-11-28T04:00:19.164Z,95.93
2018-11-28T04:01:19.212Z,96.10
2018-11-28T04:02:19.263Z,96.04
2018-11-28T04:03:19.199Z,95.41
2018-11-28T04:04:19.182Z,95.41
2018-11-28T04:05:19.589Z,96.25
2018-11-28T04:06:19.077Z,96.14
2018-11-28T04:07:19.049Z,95.93
2018-11-28T04:08:19.051Z,95.93
2018-11-28T04:09:19.072Z,96.14
2018-11-28T04:10:19.181Z,95.93
2018-11-28T04:11:19.061Z,96.04
2018-11-28T04:12:19.035Z,96.04
2018-11-28T04:13:18.972Z,95.72
2018-11-28T04:14:18.959Z,96.25
2018-11-28T04:15:18.968Z,96.04
2018-11-28T04:16:18.945Z,96.35
2018-11-28T04:17:18.922Z,96.29
2018-11-28T04:18:19.045Z,96.19
2018-11-28T04:19:18.895Z,96.50
2018-11-28T04:20:18.967Z,97.02
2018-11-28T04:21:18.994Z,97.28
2018-11-28T04:22:18.850Z,98.01
2018-11-28T04:23:18.823Z,98.38
2018-11-28T04:24:18.830Z,97.96
2018-11-28T04:25:19.424Z,97.96
2018-11-28T04:26:18.861Z,98.11
2018-11-28T04:27:18.788Z,98.22
2018-11-28T04:28:18.780Z,98.01
2018-11-28T04:29:18.783Z,97.91
2018-11-28T04:30:18.786Z,98.01
2018-11-28T04:31:18.801Z,98.16
2018-11-28T04:32:18.728Z,98.26
2018-11-28T04:33:18.757Z,99.21
2018-11-28T04:34:19.979Z,98.89
2018-11-28T04:35:18.712Z,99.88
2018-11-28T04:36:18.687Z,99.99
2018-11-28T04:37:18.691Z,99.99
2018-11-28T04:38:18.775Z,99.99
2018-11-28T04:39:18.927Z,99.99
2018-11-28T04:40:18.854Z,99.68
2018-11-28T04:41:18.706Z,99.99
2018-11-28T04:42:18.655Z,99.90
2018-11-28T04:43:18.603Z,99.90
2018-11-28T04:44:18.606Z,99.68
2018-11-28T04:45:18.594Z,99.99
2018-11-28T04:46:18.591Z,99.79
2018-11-28T04:47:18.761Z,99.99
2018-11-28T04:48:18.703Z,99.99
2018-11-28T04:49:18.581Z,99.99
2018-11-28T04:50:18.672Z,99.99
2018-11-28T04:51:18.643Z,99.55
2018-11-28T04:52:18.498Z,99.13
2018-11-28T04:53:18.504Z,98.77
2018-11-28T04:54:18.537Z,97.78
2018-11-28T04:55:18.506Z,97.68
2018-11-28T04:56:18.474Z,97.05
2018-11-28T04:57:18.480Z,96.49
2018-11-28T04:58:18.491Z,95.76
2018-11-28T04:59:18.428Z,94.98
2018-11-28T05:00:18.465Z,94.15
2018-11-28T05:01:18.406Z,94.31
2018-11-28T05:02:18.893Z,94.10
2018-11-28T05:03:18.419Z,93.65
2018-11-28T05:04:18.459Z,93.12
2018-11-28T05:05:18.456Z,92.25
2018-11-28T05:06:18.374Z,92.40
2018-11-28T05:07:18.362Z,91.83
2018-11-28T05:08:18.371Z,91.62
2018-11-28T05:09:18.320Z,91.41
2018-11-28T05:10:18.355Z,90.95
2018-11-28T05:11:18.299Z,90.95
2018-11-28T05:12:18.300Z,90.75
2018-11-28T05:13:18.276Z,90.79
2018-11-28T05:14:18.385Z,90.33
2018-11-28T05:15:18.283Z,90.95
2018-11-28T05:16:18.356Z,90.12
2018-11-28T05:17:18.347Z,89.81
2018-11-28T05:18:18.243Z,89.60
2018-11-28T05:19:18.206Z,90.08
2018-11-28T05:20:18.203Z,90.08
2018-11-28T05:21:18.190Z,89.45
2018-11-28T05:22:18.178Z,89.87
2018-11-28T05:23:18.192Z,89.76
2018-11-28T05:24:18.152Z,89.56
2018-11-28T05:25:18.168Z,89.91
2018-11-28T05:26:18.136Z,89.66
2018-11-28T05:27:18.292Z,89.56
2018-11-28T05:28:18.116Z,89.66
2018-11-28T05:29:18.104Z,89.45
2018-11-28T05:30:18.139Z,89.66
2018-11-28T05:31:18.115Z,89.56
2018-11-28T05:32:18.088Z,89.45
2018-11-28T05:33:18.064Z,89.56
2018-11-28T05:34:18.054Z,89.56
2018-11-28T05:35:18.058Z,89.56
2018-11-28T05:36:18.227Z,89.56
2018-11-28T05:37:18.044Z,89.25
2018-11-28T05:38:18.018Z,89.14
2018-11-28T05:39:17.992Z,89.45
2018-11-28T05:40:18.006Z,89.35
2018-11-28T05:41:18.026Z,90.08
2018-11-28T05:42:18.059Z,89.98
2018-11-28T05:43:17.967Z,89.91
2018-11-28T05:44:18.194Z,90.08
2018-11-28T05:45:18.009Z,89.81
2018-11-28T05:46:17.929Z,90.08
2018-11-28T05:47:17.960Z,90.01
2018-11-28T05:48:17.923Z,90.12
2018-11-28T05:49:17.981Z,90.01
2018-11-28T05:50:17.905Z,90.33
2018-11-28T05:51:17.865Z,90.12
2018-11-28T05:52:17.867Z,90.01
2018-11-28T05:53:17.847Z,89.91
2018-11-28T05:54:17.835Z,90.01
2018-11-28T05:55:17.979Z,90.85
2018-11-28T05:56:17.990Z,90.85
2018-11-28T05:57:17.840Z,90.75
2018-11-28T05:58:17.850Z,90.64
2018-11-28T05:59:17.807Z,90.85
2018-11-28T06:00:17.787Z,90.95
2018-11-28T06:01:17.807Z,91.16
2018-11-28T06:02:17.776Z,91.41
2018-11-28T06:03:17.738Z,91.20
2018-11-28T06:04:17.756Z,91.52
2018-11-28T06:05:17.745Z,92.03
2018-11-28T06:06:17.746Z,92.29
2018-11-28T06:07:17.715Z,93.33
2018-11-28T06:08:17.713Z,92.71
2018-11-28T06:09:17.680Z,93.12
2018-11-28T06:10:17.671Z,93.44
2018-11-28T06:11:17.704Z,93.27
2018-11-28T06:12:18.361Z,93.69
2018-11-28T06:13:17.633Z,94.27
2018-11-28T06:14:17.640Z,93.33
2018-11-28T06:15:17.613Z,93.69
2018-11-28T06:16:17.597Z,93.33
2018-11-28T06:17:17.590Z,93.54
2018-11-28T06:18:17.578Z,93.06
2018-11-28T06:19:17.589Z,93.79
2018-11-28T06:20:17.670Z,93.59
2018-11-28T06:21:17.565Z,94.63
2018-11-28T06:22:17.567Z,94.21
2018-11-28T06:23:17.520Z,93.79
2018-11-28T06:24:17.555Z,94.31
2018-11-28T06:25:17.512Z,94.21
2018-11-28T06:26:17.491Z,94.42
2018-11-28T06:27:17.483Z,94.17
2018-11-28T06:28:17.468Z,93.23
2018-11-28T06:29:17.461Z,93.23
2018-11-28T06:30:17.469Z,92.66
2018-11-28T06:31:17.452Z,91.89
2018-11-28T06:32:17.736Z,91.78
2018-11-28T06:33:17.417Z,92.10
2018-11-28T06:34:17.620Z,91.68
2018-11-28T06:35:17.390Z,91.12
2018-11-28T06:36:18.673Z,91.27
2018-11-28T06:37:17.855Z,90.85
2018-11-28T06:38:17.459Z,91.64
2018-11-28T06:39:17.402Z,91.22
2018-11-28T06:40:23.601Z,91.22
2018-11-28T06:41:18.410Z,91.06
2018-11-28T06:42:17.317Z,90.91
2018-11-28T06:43:17.307Z,91.02
2018-11-28T06:44:17.307Z,90.60
2018-11-28T06:45:17.289Z,90.50
2018-11-28T06:46:17.297Z,90.85
2018-11-28T06:47:17.323Z,90.91
2018-11-28T06:48:17.287Z,90.60
2018-11-28T06:49:17.277Z,90.39
2018-11-28T06:50:17.776Z,90.70
2018-11-28T06:51:17.394Z,90.70
2018-11-28T06:52:17.213Z,90.81
2018-11-28T06:53:17.283Z,90.81
2018-11-28T06:54:17.276Z,89.56
2018-11-28T06:55:17.305Z,89.87
2018-11-28T06:56:17.319Z,89.41
2018-11-28T06:57:17.351Z,89.20
2018-11-28T06:58:17.332Z,89.31
2018-11-28T06:59:17.139Z,89.10
2018-11-28T07:00:17.266Z,89.31
2018-11-28T07:01:17.244Z,89.41
2018-11-28T07:02:17.192Z,89.06
2018-11-28T07:03:17.112Z,88.85
2018-11-28T07:04:17.081Z,89.10
2018-11-28T07:05:17.129Z,89.20
2018-11-28T07:06:17.070Z,89.20
2018-11-28T07:07:17.051Z,89.10
2018-11-28T07:08:17.055Z,89.20
2018-11-28T07:09:17.033Z,89.10
2018-11-28T07:10:17.051Z,89.37
2018-11-28T07:11:17.031Z,88.23
2018-11-28T07:12:16.996Z,88.64
2018-11-28T07:13:16.992Z,88.29
2018-11-28T07:14:16.978Z,88.19
2018-11-28T07:15:16.982Z,87.56
2018-11-28T07:16:16.970Z,87.15
2018-11-28T07:17:17.066Z,87.11
2018-11-28T07:18:16.930Z,86.07
2018-11-28T07:19:17.095Z,85.61
2018-11-28T07:20:16.934Z,85.72
2018-11-28T07:21:16.906Z,85.61
2018-11-28T07:22:16.884Z,85.30
2018-11-28T07:23:16.879Z,85.30
2018-11-28T07:24:16.958Z,86.24
2018-11-28T07:25:17.095Z,85.93
2018-11-28T07:26:17.098Z,85.16
2018-11-28T07:27:16.919Z,84.89
2018-11-28T07:28:16.998Z,84.58
2018-11-28T07:29:16.886Z,84.43
2018-11-28T07:30:17.548Z,84.74
2018-11-28T07:31:16.811Z,84.01
2018-11-28T07:32:17.023Z,83.91
2018-11-28T07:33:16.848Z,84.39
2018-11-28T07:34:16.808Z,83.98
2018-11-28T07:35:16.829Z,83.87
2018-11-28T07:36:16.774Z,83.67
2018-11-28T07:37:16.764Z,83.67
2018-11-28T07:38:16.859Z,84.29
2018-11-28T07:39:16.710Z,84.29
2018-11-28T07:40:18.084Z,84.29
2018-11-28T07:41:16.771Z,84.60
2018-11-28T07:42:16.812Z,83.67
2018-11-28T07:43:16.663Z,83.77
2018-11-28T07:44:16.655Z,83.87
2018-11-28T07:45:16.647Z,83.77
2018-11-28T07:46:16.859Z,83.77
2018-11-28T07:47:17.275Z,83.77
2018-11-28T07:48:16.703Z,83.77
2018-11-28T07:49:16.595Z,83.56
2018-11-28T07:50:16.589Z,83.87
2018-11-28T07:51:16.599Z,83.77
2018-11-28T07:52:16.609Z,83.84
2018-11-28T07:53:16.571Z,83.53
2018-11-28T07:54:16.541Z,83.77
2018-11-28T07:55:16.545Z,83.87
2018-11-28T07:56:16.545Z,84.19
2018-11-28T07:57:16.778Z,84.19
2018-11-28T07:58:16.568Z,83.98
2018-11-28T07:59:16.660Z,83.77
2018-11-28T08:00:16.538Z,83.94
2018-11-28T08:01:16.577Z,83.77
2018-11-28T08:02:16.453Z,83.94
2018-11-28T08:03:16.446Z,84.15
2018-11-28T08:04:16.436Z,84.05
2018-11-28T08:05:16.437Z,83.94
2018-11-28T08:06:16.459Z,83.53
2018-11-28T08:07:16.457Z,84.15
2018-11-28T08:08:16.396Z,83.63
2018-11-28T08:09:16.711Z,83.84
2018-11-28T08:10:16.430Z,84.25
2018-11-28T08:11:16.507Z,83.94
2018-11-28T08:12:17.484Z,83.84
2018-11-28T08:13:16.649Z,83.73
2018-11-28T08:14:17.038Z,83.63
2018-11-28T08:15:17.053Z,83.11
2018-11-28T08:16:16.786Z,83.32
2018-11-28T08:17:16.336Z,82.86
2018-11-28T08:18:16.337Z,82.97
2018-11-28T08:19:16.321Z,82.80
2018-11-28T08:20:16.429Z,83.38
2018-11-28T08:21:16.605Z,83.01
2018-11-28T08:22:17.880Z,82.45
2018-11-28T08:23:16.449Z,82.86
2018-11-28T08:24:17.449Z,82.97
2018-11-28T08:25:16.240Z,82.65
2018-11-28T08:26:16.274Z,83.07
2018-11-28T08:27:17.518Z,82.55
2018-11-28T08:28:16.286Z,82.86
2018-11-28T08:29:17.205Z,82.55
2018-11-28T08:30:16.158Z,83.07
2018-11-28T08:31:16.183Z,82.55
2018-11-28T08:32:16.134Z,82.86
2018-11-28T08:33:16.115Z,82.55
2018-11-28T08:34:16.107Z,82.86
2018-11-28T08:35:16.135Z,82.24
2018-11-28T08:36:16.143Z,81.99
2018-11-28T08:37:16.109Z,81.58
2018-11-28T08:38:16.110Z,81.27
2018-11-28T08:39:16.055Z,81.44
2018-11-28T08:40:16.051Z,81.54
2018-11-28T08:41:16.061Z,82.20
2018-11-28T08:42:16.075Z,81.89
2018-11-28T08:43:16.010Z,81.68
2018-11-28T08:44:16.146Z,81.13
2018-11-28T08:45:16.042Z,81.79
2018-11-28T08:46:15.993Z,81.96
2018-11-28T08:47:16.201Z,81.68
2018-11-28T08:48:15.960Z,81.75
2018-11-28T08:49:16.022Z,81.99
2018-11-28T08:50:17.073Z,81.96
2018-11-28T08:51:15.945Z,81.85
2018-11-28T08:52:16.385Z,81.65
2018-11-28T08:53:15.922Z,81.54
2018-11-28T08:54:15.894Z,81.65
2018-11-28T08:55:15.882Z,81.02
2018-11-28T08:56:15.928Z,81.34
2018-11-28T08:57:16.040Z,80.99
2018-11-28T08:58:15.847Z,81.61
2018-11-28T08:59:15.837Z,81.20
2018-11-28T09:00:15.840Z,81.09
2018-11-28T09:01:15.824Z,81.09
2018-11-28T09:02:16.133Z,81.30
2018-11-28T09:03:15.797Z,81.61
2018-11-28T09:04:15.785Z,80.88
2018-11-28T09:05:15.774Z,81.51
2018-11-28T09:06:15.760Z,80.74
2018-11-28T09:07:15.751Z,80.02
2018-11-28T09:08:15.760Z,80.02
2018-11-28T09:09:15.749Z,80.33
2018-11-28T09:10:15.758Z,79.19
2018-11-28T09:11:15.729Z,79.57
2018-11-28T09:12:15.760Z,79.05
2018-11-28T09:13:15.717Z,78.85
2018-11-28T09:14:15.680Z,79.05
2018-11-28T09:15:15.698Z,78.85
2018-11-28T09:16:15.811Z,78.64
2018-11-28T09:17:15.690Z,78.95
2018-11-28T09:18:15.632Z,79.05
2018-11-28T09:19:15.624Z,79.16
2018-11-28T09:20:15.709Z,78.39
2018-11-28T09:21:15.644Z,78.53
2018-11-28T09:22:15.647Z,78.95
2018-11-28T09:23:15.996Z,78.53
2018-11-28T09:24:15.624Z,78.95
2018-11-28T09:25:15.561Z,78.33
2018-11-28T09:26:15.558Z,79.33
2018-11-28T09:27:15.632Z,78.70
2018-11-28T09:28:15.599Z,77.98
2018-11-28T09:29:15.736Z,78.60
2018-11-28T09:30:15.505Z,78.64
2018-11-28T09:31:15.516Z,78.50
2018-11-28T09:32:15.516Z,78.70
2018-11-28T09:33:15.926Z,78.50
2018-11-28T09:34:15.600Z,78.70
2018-11-28T09:35:15.643Z,78.70
2018-11-28T09:36:15.453Z,78.08
2018-11-28T09:37:15.451Z,78.50
2018-11-28T09:38:15.587Z,78.56
2018-11-28T09:39:17.519Z,77.87
2018-11-28T09:40:15.447Z,78.67
2018-11-28T09:41:15.489Z,78.88
2018-11-28T09:42:15.434Z,78.81
2018-11-28T09:43:15.362Z,76.91
2018-11-28T09:44:15.402Z,77.22
2018-11-28T09:45:15.531Z,77.84
2018-11-28T09:46:15.414Z,77.12
2018-11-28T09:47:27.838Z,76.81
2018-11-28T09:48:15.305Z,77.22
2018-11-28T09:49:15.664Z,77.33
2018-11-28T09:50:15.298Z,77.43
2018-11-28T09:51:15.292Z,76.91
2018-11-28T09:52:15.285Z,76.91
2018-11-28T09:53:15.535Z,76.36
2018-11-28T09:54:15.240Z,77.29
2018-11-28T09:55:15.228Z,76.50
2018-11-28T09:56:15.226Z,76.05
2018-11-28T09:57:16.310Z,76.60
2018-11-28T09:58:15.321Z,77.29
2018-11-28T09:59:15.302Z,76.77
